Time,TemperatureF,DewpointF,PressureIn,WindDirection,WindDirectionDegrees,WindSpeedMPH,WindSpeedGustMPH,Humidity,HourlyPrecipIn,Conditions,Clouds,dailyrainin,SoftwareType,DateUTC
2017-06-25 00:02:00,60.5,55.0,29.91,North,351,0.0,0.0,83,0.00,,,0.00,weatherlink.com 1.10,2017-06-25 04:02:00,
2017-06-25 00:17:00,59.7,56.0,29.91,North,351,0.0,0.0,86,0.00,,,0.00,weatherlink.com 1.10,2017-06-25 04:17:00,
2017-06-25 00:32:00,59.7,55.0,29.91,North,351,0.0,0.0,84,0.00,,,0.00,weatherlink.com 1.10,2017-06-25 04:32:00,
2017-06-25 00:47:00,60.3,55.0,29.91,West,259,1.0,2.0,83,0.00,,,0.00,weatherlink.com 1.10,2017-06-25 04:47:00,
2017-06-25 01:02:00,59.5,55.0,29.91,SW,215,3.0,5.0,85,0.00,,,0.00,weatherlink.com 1.10,2017-06-25 05:02:00,
2017-06-25 01:17:00,58.5,54.0,29.91,SSW,192,0.0,3.0,86,0.00,,,0.00,weatherlink.com 1.10,2017-06-25 05:17:00,
2017-06-25 01:32:00,57.0,54.0,29.92,SSW,192,1.0,3.0,89,0.00,,,0.00,weatherlink.com 1.10,2017-06-25 05:32:00,
2017-06-25 01:47:00,56.5,54.0,29.91,SSW,192,0.0,0.0,90,0.00,,,0.00,weatherlink.com 1.10,2017-06-25 05:47:00,
2017-06-25 02:02:00,56.6,54.0,29.91,South,189,4.0,6.0,92,0.00,,,0.00,weatherlink.com 1.10,2017-06-25 06:02:00,
2017-06-25 02:17:00,56.7,54.0,29.92,South,186,3.0,4.0,91,0.00,,,0.00,weatherlink.com 1.10,2017-06-25 06:17:00,
2017-06-25 02:32:00,57.3,55.0,29.92,SSW,211,1.0,6.0,92,0.00,,,0.00,weatherlink.com 1.10,2017-06-25 06:32:00,
2017-06-25 02:47:00,58.4,55.0,29.92,SW,221,3.0,5.0,89,0.00,,,0.00,weatherlink.com 1.10,2017-06-25 06:47:00,
2017-06-25 03:02:00,58.7,55.0,29.92,SW,219,3.0,5.0,87,0.00,,,0.00,weatherlink.com 1.10,2017-06-25 07:02:00,
2017-06-25 03:17:00,58.6,55.0,29.92,SW,234,1.0,4.0,86,0.00,,,0.00,weatherlink.com 1.10,2017-06-25 07:17:00,
2017-06-25 03:32:00,58.3,55.0,29.91,SW,221,1.0,4.0,87,0.00,,,0.00,weatherlink.com 1.10,2017-06-25 07:32:00,
2017-06-25 03:47:00,58.7,54.0,29.91,SW,215,2.0,5.0,85,0.00,,,0.00,weatherlink.com 1.10,2017-06-25 07:47:00,
2017-06-25 04:02:00,56.9,54.0,29.90,SSW,211,3.0,3.0,89,0.00,,,0.00,weatherlink.com 1.10,2017-06-25 08:02:00,
2017-06-25 04:17:00,55.4,53.0,29.90,SSW,211,0.0,0.0,91,0.00,,,0.00,weatherlink.com 1.10,2017-06-25 08:17:00,
2017-06-25 04:32:00,57.3,55.0,29.90,SW,223,3.0,4.0,91,0.00,,,0.00,weatherlink.com 1.10,2017-06-25 08:32:00,
2017-06-25 04:47:00,58.3,54.0,29.91,WSW,251,2.0,6.0,86,0.00,,,0.00,weatherlink.com 1.10,2017-06-25 08:47:00,
2017-06-25 05:03:00,58.2,54.0,29.91,SSW,209,6.0,8.0,86,0.00,,,0.00,weatherlink.com 1.10,2017-06-25 09:03:00,
2017-06-25 05:17:00,57.5,54.0,29.91,SW,220,3.0,7.0,87,0.00,,,0.00,weatherlink.com 1.10,2017-06-25 09:17:00,
2017-06-25 05:32:00,56.4,53.0,29.92,South,183,3.0,4.0,89,0.00,,,0.00,weatherlink.com 1.10,2017-06-25 09:32:00,
2017-06-25 05:47:00,56.3,54.0,29.92,South,187,3.0,5.0,90,0.00,,,0.00,weatherlink.com 1.10,2017-06-25 09:47:00,
2017-06-25 06:02:00,56.1,53.0,29.92,South,175,5.0,5.0,90,0.00,,,0.00,weatherlink.com 1.10,2017-06-25 10:02:00,
2017-06-25 06:18:00,55.8,53.0,29.92,South,172,4.0,5.0,91,0.00,,,0.00,weatherlink.com 1.10,2017-06-25 10:18:00,
2017-06-25 06:33:00,55.8,53.0,29.92,South,174,3.0,4.0,91,0.00,,,0.00,weatherlink.com 1.10,2017-06-25 10:33:00,
2017-06-25 06:48:00,56.3,54.0,29.93,SSW,196,6.0,7.0,92,0.00,,,0.00,weatherlink.com 1.10,2017-06-25 10:48:00,
2017-06-25 07:03:00,57.1,55.0,29.93,SSW,195,4.0,7.0,91,0.00,,,0.00,weatherlink.com 1.10,2017-06-25 11:03:00,
2017-06-25 07:18:00,57.4,54.0,29.93,SW,227,4.0,6.0,89,0.00,,,0.00,weatherlink.com 1.10,2017-06-25 11:18:00,
2017-06-25 07:33:00,58.0,55.0,29.94,SW,229,4.0,7.0,89,0.00,,,0.00,weatherlink.com 1.10,2017-06-25 11:33:00,
2017-06-25 07:48:00,58.7,55.0,29.95,South,188,3.0,7.0,87,0.00,,,0.00,weatherlink.com 1.10,2017-06-25 11:48:00,
2017-06-25 08:03:00,59.6,56.0,29.94,SW,216,3.0,8.0,86,0.00,,,0.00,weatherlink.com 1.10,2017-06-25 12:03:00,
2017-06-25 08:18:00,60.5,55.0,29.95,SSE,168,4.0,7.0,83,0.00,,,0.00,weatherlink.com 1.10,2017-06-25 12:18:00,
2017-06-25 08:33:00,61.3,55.0,29.95,SW,220,3.0,8.0,81,0.00,,,0.00,weatherlink.com 1.10,2017-06-25 12:33:00,
2017-06-25 08:48:00,61.7,56.0,29.95,SW,231,5.0,10.0,81,0.00,,,0.00,weatherlink.com 1.10,2017-06-25 12:48:00,
2017-06-25 09:03:00,62.5,56.0,29.95,SW,235,7.0,9.0,79,0.00,,,0.00,weatherlink.com 1.10,2017-06-25 13:03:00,
2017-06-25 09:18:00,63.1,55.0,29.95,SW,223,9.0,11.0,75,0.00,,,0.00,weatherlink.com 1.10,2017-06-25 13:18:00,
2017-06-25 09:33:00,63.6,56.0,29.95,SSW,194,5.0,11.0,75,0.00,,,0.00,weatherlink.com 1.10,2017-06-25 13:33:00,
2017-06-25 09:48:00,64.3,56.0,29.95,WSW,239,7.0,12.0,75,0.00,,,0.00,weatherlink.com 1.10,2017-06-25 13:48:00,
2017-06-25 10:03:00,64.5,55.0,29.95,SSW,209,7.0,17.0,70,0.00,,,0.00,weatherlink.com 1.10,2017-06-25 14:03:00,
2017-06-25 10:18:00,64.5,53.0,29.95,South,177,3.0,19.0,66,0.00,,,0.00,weatherlink.com 1.10,2017-06-25 14:18:00,
2017-06-25 10:33:00,64.1,53.0,29.95,SSW,200,9.0,17.0,68,0.00,,,0.00,weatherlink.com 1.10,2017-06-25 14:33:00,
2017-06-25 10:48:00,65.5,54.0,29.95,SSW,207,5.0,20.0,66,0.00,,,0.00,weatherlink.com 1.10,2017-06-25 14:48:00,
2017-06-25 11:03:00,66.0,52.0,29.96,WSW,254,7.0,19.0,62,0.00,,,0.00,weatherlink.com 1.10,2017-06-25 15:03:00,
2017-06-25 11:18:00,66.3,53.0,29.96,SW,236,10.0,16.0,62,0.00,,,0.00,weatherlink.com 1.10,2017-06-25 15:18:00,
2017-06-25 11:33:00,66.2,52.0,29.95,West,261,7.0,17.0,61,0.00,,,0.00,weatherlink.com 1.10,2017-06-25 15:33:00,
2017-06-25 11:48:00,66.8,51.0,29.95,SW,232,7.0,19.0,58,0.00,,,0.00,weatherlink.com 1.10,2017-06-25 15:48:00,
2017-06-25 12:03:00,67.2,51.0,29.95,WSW,244,7.0,20.0,57,0.00,,,0.00,weatherlink.com 1.10,2017-06-25 16:03:00,
2017-06-25 12:18:00,65.5,52.0,29.95,WSW,241,7.0,14.0,61,0.00,,,0.00,weatherlink.com 1.10,2017-06-25 16:18:00,
2017-06-25 12:33:00,66.5,52.0,29.94,SW,225,8.0,17.0,59,0.00,,,0.00,weatherlink.com 1.10,2017-06-25 16:33:00,
2017-06-25 12:48:00,68.3,54.0,29.93,SW,215,14.0,17.0,61,0.00,,,0.00,weatherlink.com 1.10,2017-06-25 16:48:00,
2017-06-25 13:03:00,67.0,52.0,29.93,SW,224,12.0,14.0,60,0.00,,,0.00,weatherlink.com 1.10,2017-06-25 17:03:00,
2017-06-25 13:18:00,68.3,51.0,29.92,South,186,17.0,17.0,55,0.00,,,0.00,weatherlink.com 1.10,2017-06-25 17:18:00,
2017-06-25 13:33:00,67.2,52.0,29.93,SSW,207,13.0,16.0,58,0.00,,,0.00,weatherlink.com 1.10,2017-06-25 17:33:00,
2017-06-25 13:48:00,67.5,52.0,29.92,South,180,11.0,22.0,57,0.00,,,0.00,weatherlink.com 1.10,2017-06-25 17:48:00,
2017-06-25 14:03:00,67.7,51.0,29.91,SW,227,9.0,19.0,55,0.00,,,0.00,weatherlink.com 1.10,2017-06-25 18:03:00,
2017-06-25 14:18:00,67.5,49.0,29.92,WSW,251,11.0,22.0,52,0.00,,,0.00,weatherlink.com 1.10,2017-06-25 18:18:00,
2017-06-25 14:33:00,67.7,49.0,29.92,NW,305,5.0,23.0,52,0.00,,,0.00,weatherlink.com 1.10,2017-06-25 18:33:00,
2017-06-25 14:48:00,67.6,55.0,29.92,WNW,282,4.0,15.0,65,0.00,,,0.00,weatherlink.com 1.10,2017-06-25 18:48:00,
2017-06-25 15:03:00,67.6,56.0,29.92,West,279,4.0,16.0,67,0.00,,,0.00,weatherlink.com 1.10,2017-06-25 19:03:00,
2017-06-25 15:18:00,65.8,54.0,29.92,WSW,257,8.0,18.0,67,0.00,,,0.00,weatherlink.com 1.10,2017-06-25 19:18:00,
2017-06-25 15:33:00,66.5,54.0,29.92,WNW,300,6.0,20.0,65,0.00,,,0.00,weatherlink.com 1.10,2017-06-25 19:33:00,
2017-06-25 15:48:00,65.9,54.0,29.93,SSE,164,3.0,18.0,66,0.00,,,0.00,weatherlink.com 1.10,2017-06-25 19:48:00,
2017-06-25 16:03:00,67.1,55.0,29.93,SW,223,10.0,18.0,65,0.00,,,0.00,weatherlink.com 1.10,2017-06-25 20:03:00,
2017-06-25 16:18:00,66.7,55.0,29.93,WNW,284,8.0,20.0,66,0.00,,,0.00,weatherlink.com 1.10,2017-06-25 20:18:00,
2017-06-25 16:33:00,66.3,53.0,29.94,WNW,298,10.0,22.0,62,0.00,,,0.00,weatherlink.com 1.10,2017-06-25 20:33:00,
2017-06-25 16:48:00,65.9,51.0,29.94,WNW,290,10.0,23.0,59,0.00,,,0.00,weatherlink.com 1.10,2017-06-25 20:48:00,
2017-06-25 17:04:00,66.4,51.0,29.94,West,270,6.0,18.0,58,0.00,,,0.00,weatherlink.com 1.10,2017-06-25 21:04:00,
2017-06-25 17:18:00,65.9,50.0,29.95,West,264,10.0,18.0,57,0.00,,,0.00,weatherlink.com 1.10,2017-06-25 21:18:00,
2017-06-25 17:33:00,65.5,48.0,29.95,WNW,286,10.0,22.0,54,0.00,,,0.00,weatherlink.com 1.10,2017-06-25 21:33:00,
2017-06-25 17:48:00,65.3,48.0,29.95,NW,315,5.0,23.0,53,0.00,,,0.00,weatherlink.com 1.10,2017-06-25 21:48:00,
2017-06-25 18:03:00,65.4,48.0,29.95,WNW,283,6.0,15.0,53,0.00,,,0.00,weatherlink.com 1.10,2017-06-25 22:03:00,
2017-06-25 18:19:00,65.5,49.0,29.95,SW,233,4.0,16.0,55,0.00,,,0.00,weatherlink.com 1.10,2017-06-25 22:19:00,
2017-06-25 18:33:00,65.2,48.0,29.95,NW,310,8.0,15.0,55,0.00,,,0.00,weatherlink.com 1.10,2017-06-25 22:33:00,
2017-06-25 18:49:00,64.8,49.0,29.96,NW,317,3.0,16.0,56,0.00,,,0.00,weatherlink.com 1.10,2017-06-25 22:49:00,
2017-06-25 19:04:00,65.0,49.0,29.96,WNW,284,9.0,13.0,56,0.00,,,0.00,weatherlink.com 1.10,2017-06-25 23:04:00,
2017-06-25 19:19:00,64.4,49.0,29.96,WNW,284,6.0,14.0,57,0.00,,,0.00,weatherlink.com 1.10,2017-06-25 23:19:00,
2017-06-25 19:34:00,64.5,49.0,29.96,WNW,291,6.0,9.0,58,0.00,,,0.00,weatherlink.com 1.10,2017-06-25 23:34:00,
2017-06-25 19:49:00,63.8,49.0,29.96,West,276,5.0,13.0,59,0.00,,,0.00,weatherlink.com 1.10,2017-06-25 23:49:00,
2017-06-25 20:04:00,63.0,49.0,29.97,NW,308,4.0,10.0,60,0.00,,,0.00,weatherlink.com 1.10,2017-06-26 00:04:00,
2017-06-25 20:19:00,62.4,49.0,29.96,WNW,289,4.0,9.0,62,0.00,,,0.00,weatherlink.com 1.10,2017-06-26 00:19:00,
2017-06-25 20:34:00,61.7,50.0,29.97,WNW,298,2.0,7.0,65,0.00,,,0.00,weatherlink.com 1.10,2017-06-26 00:34:00,
2017-06-25 20:49:00,60.5,50.0,29.97,WNW,303,1.0,4.0,68,0.00,,,0.00,weatherlink.com 1.10,2017-06-26 00:49:00,
2017-06-25 21:04:00,59.7,50.0,29.97,WNW,294,0.0,0.0,70,0.00,,,0.00,weatherlink.com 1.10,2017-06-26 01:04:00,
2017-06-25 21:19:00,59.1,50.0,29.97,WNW,284,0.0,3.0,72,0.00,,,0.00,weatherlink.com 1.10,2017-06-26 01:19:00,
2017-06-25 21:34:00,58.5,51.0,29.97,WNW,286,0.0,0.0,75,0.00,,,0.00,weatherlink.com 1.10,2017-06-26 01:34:00,
2017-06-25 21:49:00,57.4,51.0,29.98,WNW,286,0.0,0.0,78,0.00,,,0.00,weatherlink.com 1.10,2017-06-26 01:49:00,
2017-06-25 22:04:00,57.0,50.0,29.98,SSW,205,1.0,3.0,78,0.00,,,0.00,weatherlink.com 1.10,2017-06-26 02:04:00,
2017-06-25 22:19:00,57.2,51.0,29.98,SSW,205,3.0,5.0,79,0.00,,,0.00,weatherlink.com 1.10,2017-06-26 02:19:00,
2017-06-25 22:34:00,57.0,50.0,29.98,SSW,201,4.0,6.0,78,0.00,,,0.00,weatherlink.com 1.10,2017-06-26 02:34:00,